sensor_id;sensor_type;location;lat;lon;timestamp;P1;durP1;ratioP1;P2;durP2;ratioP2
10653;SDS011;5375;51.250;6.776;2022-12-15T00:02:31;6.80;;;4.97;;
10653;SDS011;5375;51.250;6.776;2022-12-15T00:05:16;6.30;;;4.90;;
10653;SDS011;5375;51.250;6.776;2022-12-15T00:08:05;6.10;;;5.10;;
10653;SDS011;5375;51.250;6.776;2022-12-15T00:10:50;7.90;;;5.40;;
10653;SDS011;5375;51.250;6.776;2022-12-15T00:13:34;6.87;;;5.20;;
10653;SDS011;5375;51.250;6.776;2022-12-15T00:16:19;7.33;;;5.33;;
10653;SDS011;5375;51.250;6.776;2022-12-15T00:19:04;6.23;;;5.03;;
10653;SDS011;5375;51.250;6.776;2022-12-15T00:21:48;6.80;;;5.27;;
10653;SDS011;5375;51.250;6.776;2022-12-15T00:24:33;6.83;;;5.23;;
10653;SDS011;5375;51.250;6.776;2022-12-15T00:27:18;5.83;;;5.00;;
10653;SDS011;5375;51.250;6.776;2022-12-15T00:30:03;8.10;;;5.17;;
10653;SDS011;5375;51.250;6.776;2022-12-15T00:32:48;8.23;;;5.70;;
10653;SDS011;5375;51.250;6.776;2022-12-15T00:35:33;6.57;;;5.60;;
10653;SDS011;5375;51.250;6.776;2022-12-15T00:38:17;5.57;;;4.83;;
10653;SDS011;5375;51.250;6.776;2022-12-15T00:41:02;6.47;;;5.50;;
10653;SDS011;5375;51.250;6.776;2022-12-15T00:43:28;6.93;;;5.47;;
10653;SDS011;5375;51.250;6.776;2022-12-15T00:45:54;5.80;;;5.10;;
10653;SDS011;5375;51.250;6.776;2022-12-15T00:48:39;7.97;;;5.30;;
10653;SDS011;5375;51.250;6.776;2022-12-15T00:51:06;6.87;;;5.47;;
10653;SDS011;5375;51.250;6.776;2022-12-15T00:53:32;5.83;;;5.10;;
10653;SDS011;5375;51.250;6.776;2022-12-15T00:56:16;6.80;;;5.57;;
10653;SDS011;5375;51.250;6.776;2022-12-15T00:59:01;5.90;;;5.30;;
10653;SDS011;5375;51.250;6.776;2022-12-15T01:01:46;6.90;;;5.20;;
10653;SDS011;5375;51.250;6.776;2022-12-15T01:04:30;6.77;;;5.27;;
10653;SDS011;5375;51.250;6.776;2022-12-15T01:07:15;7.87;;;5.40;;
10653;SDS011;5375;51.250;6.776;2022-12-15T01:10:00;7.63;;;5.30;;
10653;SDS011;5375;51.250;6.776;2022-12-15T01:12:45;5.87;;;5.20;;
10653;SDS011;5375;51.250;6.776;2022-12-15T01:15:30;8.03;;;5.80;;
10653;SDS011;5375;51.250;6.776;2022-12-15T01:18:15;7.07;;;5.00;;
10653;SDS011;5375;51.250;6.776;2022-12-15T01:21:01;6.63;;;5.10;;
10653;SDS011;5375;51.250;6.776;2022-12-15T01:23:29;6.93;;;4.93;;
10653;SDS011;5375;51.250;6.776;2022-12-15T01:25:55;7.07;;;5.37;;
10653;SDS011;5375;51.250;6.776;2022-12-15T01:28:21;6.50;;;5.37;;
10653;SDS011;5375;51.250;6.776;2022-12-15T01:30:47;6.40;;;5.47;;
10653;SDS011;5375;51.250;6.776;2022-12-15T01:33:14;6.43;;;5.57;;
10653;SDS011;5375;51.250;6.776;2022-12-15T01:35:40;6.57;;;5.40;;
10653;SDS011;5375;51.250;6.776;2022-12-15T01:38:06;6.57;;;5.43;;
10653;SDS011;5375;51.250;6.776;2022-12-15T01:40:32;7.37;;;5.13;;
10653;SDS011;5375;51.250;6.776;2022-12-15T01:43:17;9.77;;;5.97;;
10653;SDS011;5375;51.250;6.776;2022-12-15T01:45:46;6.10;;;5.17;;
10653;SDS011;5375;51.250;6.776;2022-12-15T01:48:14;6.97;;;5.10;;
10653;SDS011;5375;51.250;6.776;2022-12-15T01:50:43;6.73;;;5.30;;
10653;SDS011;5375;51.250;6.776;2022-12-15T01:53:10;7.27;;;5.37;;
10653;SDS011;5375;51.250;6.776;2022-12-15T01:55:36;6.10;;;5.50;;
10653;SDS011;5375;51.250;6.776;2022-12-15T01:58:04;6.37;;;5.33;;
10653;SDS011;5375;51.250;6.776;2022-12-15T02:00:31;6.57;;;5.47;;
10653;SDS011;5375;51.250;6.776;2022-12-15T02:02:57;6.93;;;5.40;;
10653;SDS011;5375;51.250;6.776;2022-12-15T02:05:25;7.13;;;5.33;;
10653;SDS011;5375;51.250;6.776;2022-12-15T02:07:51;6.83;;;5.10;;
10653;SDS011;5375;51.250;6.776;2022-12-15T02:10:17;5.60;;;4.90;;
10653;SDS011;5375;51.250;6.776;2022-12-15T02:12:57;7.77;;;5.10;;
10653;SDS011;5375;51.250;6.776;2022-12-15T02:15:42;6.07;;;5.30;;
10653;SDS011;5375;51.250;6.776;2022-12-15T02:31:14;5.80;;;5.20;;
10653;SDS011;5375;51.250;6.776;2022-12-15T02:34:04;7.17;;;5.10;;
10653;SDS011;5375;51.250;6.776;2022-12-15T02:36:37;5.33;;;4.80;;
10653;SDS011;5375;51.250;6.776;2022-12-15T02:39:04;9.73;;;5.53;;
10653;SDS011;5375;51.250;6.776;2022-12-15T02:41:37;6.70;;;5.17;;
10653;SDS011;5375;51.250;6.776;2022-12-15T02:49:34;7.30;;;5.20;;
10653;SDS011;5375;51.250;6.776;2022-12-15T02:57:15;19.30;;;5.37;;
10653;SDS011;5375;51.250;6.776;2022-12-15T02:59:53;7.67;;;5.10;;
10653;SDS011;5375;51.250;6.776;2022-12-15T03:02:21;5.27;;;4.40;;
10653;SDS011;5375;51.250;6.776;2022-12-15T03:04:49;6.67;;;5.53;;
10653;SDS011;5375;51.250;6.776;2022-12-15T03:07:15;8.60;;;5.00;;
10653;SDS011;5375;51.250;6.776;2022-12-15T03:09:41;10.73;;;6.00;;
10653;SDS011;5375;51.250;6.776;2022-12-15T03:12:07;6.40;;;5.10;;
10653;SDS011;5375;51.250;6.776;2022-12-15T03:14:34;6.50;;;5.73;;
10653;SDS011;5375;51.250;6.776;2022-12-15T03:17:00;8.50;;;5.50;;
10653;SDS011;5375;51.250;6.776;2022-12-15T03:19:28;7.17;;;5.33;;
10653;SDS011;5375;51.250;6.776;2022-12-15T03:21:54;8.00;;;5.53;;
10653;SDS011;5375;51.250;6.776;2022-12-15T03:24:20;6.20;;;5.30;;
10653;SDS011;5375;51.250;6.776;2022-12-15T03:26:46;11.00;;;5.83;;
10653;SDS011;5375;51.250;6.776;2022-12-15T03:29:14;6.93;;;5.63;;
10653;SDS011;5375;51.250;6.776;2022-12-15T03:31:40;6.97;;;5.17;;
10653;SDS011;5375;51.250;6.776;2022-12-15T03:34:06;6.87;;;5.70;;
10653;SDS011;5375;51.250;6.776;2022-12-15T03:36:32;6.80;;;5.47;;
10653;SDS011;5375;51.250;6.776;2022-12-15T03:38:58;6.97;;;5.73;;
10653;SDS011;5375;51.250;6.776;2022-12-15T03:41:24;7.83;;;6.10;;
10653;SDS011;5375;51.250;6.776;2022-12-15T03:43:50;6.73;;;5.60;;
10653;SDS011;5375;51.250;6.776;2022-12-15T03:46:15;6.53;;;5.23;;
10653;SDS011;5375;51.250;6.776;2022-12-15T03:48:42;7.37;;;5.30;;
10653;SDS011;5375;51.250;6.776;2022-12-15T03:51:08;8.17;;;5.43;;
10653;SDS011;5375;51.250;6.776;2022-12-15T03:53:34;7.90;;;5.63;;
10653;SDS011;5375;51.250;6.776;2022-12-15T03:56:00;6.67;;;5.40;;
10653;SDS011;5375;51.250;6.776;2022-12-15T03:58:26;7.00;;;5.60;;
10653;SDS011;5375;51.250;6.776;2022-12-15T04:00:52;9.23;;;5.00;;
10653;SDS011;5375;51.250;6.776;2022-12-15T04:03:17;7.50;;;5.27;;
10653;SDS011;5375;51.250;6.776;2022-12-15T04:05:43;6.20;;;5.17;;
10653;SDS011;5375;51.250;6.776;2022-12-15T04:08:09;8.03;;;5.67;;
10653;SDS011;5375;51.250;6.776;2022-12-15T04:10:36;23.03;;;5.93;;
10653;SDS011;5375;51.250;6.776;2022-12-15T04:13:06;8.67;;;5.50;;
10653;SDS011;5375;51.250;6.776;2022-12-15T04:15:33;12.87;;;5.37;;
10653;SDS011;5375;51.250;6.776;2022-12-15T04:18:00;6.73;;;5.60;;
10653;SDS011;5375;51.250;6.776;2022-12-15T04:20:26;7.57;;;5.50;;
10653;SDS011;5375;51.250;6.776;2022-12-15T04:22:52;9.07;;;5.47;;
10653;SDS011;5375;51.250;6.776;2022-12-15T04:25:20;6.40;;;5.10;;
10653;SDS011;5375;51.250;6.776;2022-12-15T04:28:05;7.43;;;5.27;;
10653;SDS011;5375;51.250;6.776;2022-12-15T04:30:51;8.40;;;5.20;;
10653;SDS011;5375;51.250;6.776;2022-12-15T04:33:36;5.40;;;4.77;;
10653;SDS011;5375;51.250;6.776;2022-12-15T04:36:22;7.43;;;5.73;;
10653;SDS011;5375;51.250;6.776;2022-12-15T04:39:07;5.53;;;4.90;;
10653;SDS011;5375;51.250;6.776;2022-12-15T04:41:52;8.00;;;5.57;;
10653;SDS011;5375;51.250;6.776;2022-12-15T04:44:37;5.93;;;5.00;;
10653;SDS011;5375;51.250;6.776;2022-12-15T04:47:22;8.40;;;5.70;;
10653;SDS011;5375;51.250;6.776;2022-12-15T04:50:06;7.13;;;5.63;;
10653;SDS011;5375;51.250;6.776;2022-12-15T04:52:51;7.67;;;5.23;;
10653;SDS011;5375;51.250;6.776;2022-12-15T04:55:36;7.97;;;5.70;;
10653;SDS011;5375;51.250;6.776;2022-12-15T04:58:21;7.90;;;6.13;;
10653;SDS011;5375;51.250;6.776;2022-12-15T05:01:05;6.67;;;5.50;;
10653;SDS011;5375;51.250;6.776;2022-12-15T05:03:50;7.03;;;5.30;;
10653;SDS011;5375;51.250;6.776;2022-12-15T05:06:35;6.10;;;4.73;;
10653;SDS011;5375;51.250;6.776;2022-12-15T05:09:19;11.87;;;4.60;;
10653;SDS011;5375;51.250;6.776;2022-12-15T05:12:04;9.53;;;5.23;;
10653;SDS011;5375;51.250;6.776;2022-12-15T05:14:49;6.90;;;4.97;;
10653;SDS011;5375;51.250;6.776;2022-12-15T05:17:33;10.27;;;5.33;;
10653;SDS011;5375;51.250;6.776;2022-12-15T05:20:18;5.00;;;4.43;;
10653;SDS011;5375;51.250;6.776;2022-12-15T05:23:02;8.87;;;4.90;;
10653;SDS011;5375;51.250;6.776;2022-12-15T05:25:47;6.77;;;4.80;;
10653;SDS011;5375;51.250;6.776;2022-12-15T05:28:31;6.13;;;4.50;;
10653;SDS011;5375;51.250;6.776;2022-12-15T05:31:16;7.37;;;4.50;;
10653;SDS011;5375;51.250;6.776;2022-12-15T05:34:00;8.80;;;4.83;;
10653;SDS011;5375;51.250;6.776;2022-12-15T05:36:26;4.97;;;4.27;;
10653;SDS011;5375;51.250;6.776;2022-12-15T05:38:52;7.77;;;5.30;;
10653;SDS011;5375;51.250;6.776;2022-12-15T05:41:19;5.83;;;4.50;;
10653;SDS011;5375;51.250;6.776;2022-12-15T05:43:45;6.63;;;5.03;;
10653;SDS011;5375;51.250;6.776;2022-12-15T05:46:12;8.23;;;4.60;;
10653;SDS011;5375;51.250;6.776;2022-12-15T05:48:42;5.23;;;4.70;;
10653;SDS011;5375;51.250;6.776;2022-12-15T05:51:09;6.30;;;4.80;;
10653;SDS011;5375;51.250;6.776;2022-12-15T05:53:36;5.67;;;4.40;;
10653;SDS011;5375;51.250;6.776;2022-12-15T05:56:06;7.63;;;4.97;;
10653;SDS011;5375;51.250;6.776;2022-12-15T05:58:32;7.07;;;4.60;;
10653;SDS011;5375;51.250;6.776;2022-12-15T06:01:04;6.00;;;4.40;;
10653;SDS011;5375;51.250;6.776;2022-12-15T06:03:31;7.93;;;4.80;;
10653;SDS011;5375;51.250;6.776;2022-12-15T06:05:57;9.93;;;4.47;;
10653;SDS011;5375;51.250;6.776;2022-12-15T06:08:24;5.07;;;4.33;;
10653;SDS011;5375;51.250;6.776;2022-12-15T06:10:51;5.40;;;4.43;;
10653;SDS011;5375;51.250;6.776;2022-12-15T06:13:18;6.50;;;4.50;;
10653;SDS011;5375;51.250;6.776;2022-12-15T06:15:52;7.20;;;4.70;;
10653;SDS011;5375;51.250;6.776;2022-12-15T06:18:19;6.17;;;4.50;;
10653;SDS011;5375;51.250;6.776;2022-12-15T06:20:45;6.17;;;4.47;;
10653;SDS011;5375;51.250;6.776;2022-12-15T06:23:11;6.27;;;4.50;;
10653;SDS011;5375;51.250;6.776;2022-12-15T06:25:37;6.73;;;4.53;;
10653;SDS011;5375;51.250;6.776;2022-12-15T06:28:04;8.10;;;4.37;;
10653;SDS011;5375;51.250;6.776;2022-12-15T06:30:29;8.30;;;5.03;;
10653;SDS011;5375;51.250;6.776;2022-12-15T06:32:56;5.63;;;4.50;;
10653;SDS011;5375;51.250;6.776;2022-12-15T06:35:22;5.87;;;4.50;;
10653;SDS011;5375;51.250;6.776;2022-12-15T06:37:49;6.37;;;4.37;;
10653;SDS011;5375;51.250;6.776;2022-12-15T06:40:15;10.70;;;4.10;;
10653;SDS011;5375;51.250;6.776;2022-12-15T06:42:41;6.33;;;4.30;;
10653;SDS011;5375;51.250;6.776;2022-12-15T06:45:07;7.50;;;4.47;;
10653;SDS011;5375;51.250;6.776;2022-12-15T06:47:33;5.53;;;4.30;;
10653;SDS011;5375;51.250;6.776;2022-12-15T06:49:59;7.10;;;4.60;;
10653;SDS011;5375;51.250;6.776;2022-12-15T06:52:26;5.63;;;4.40;;
10653;SDS011;5375;51.250;6.776;2022-12-15T06:54:52;5.80;;;4.50;;
10653;SDS011;5375;51.250;6.776;2022-12-15T06:57:18;5.00;;;4.33;;
10653;SDS011;5375;51.250;6.776;2022-12-15T06:59:45;5.40;;;4.37;;
10653;SDS011;5375;51.250;6.776;2022-12-15T07:02:14;6.77;;;4.50;;
10653;SDS011;5375;51.250;6.776;2022-12-15T07:04:42;5.77;;;4.70;;
10653;SDS011;5375;51.250;6.776;2022-12-15T07:07:10;5.97;;;4.10;;
10653;SDS011;5375;51.250;6.776;2022-12-15T07:09:37;5.03;;;3.90;;
10653;SDS011;5375;51.250;6.776;2022-12-15T07:12:04;6.27;;;4.30;;
10653;SDS011;5375;51.250;6.776;2022-12-15T07:14:33;5.47;;;4.50;;
10653;SDS011;5375;51.250;6.776;2022-12-15T07:17:05;6.83;;;4.50;;
10653;SDS011;5375;51.250;6.776;2022-12-15T07:19:34;6.70;;;4.50;;
10653;SDS011;5375;51.250;6.776;2022-12-15T07:22:00;7.43;;;4.73;;
10653;SDS011;5375;51.250;6.776;2022-12-15T07:24:26;5.63;;;4.57;;
10653;SDS011;5375;51.250;6.776;2022-12-15T07:26:52;5.57;;;4.40;;
10653;SDS011;5375;51.250;6.776;2022-12-15T07:29:19;5.43;;;4.40;;
10653;SDS011;5375;51.250;6.776;2022-12-15T07:31:45;5.10;;;4.60;;
10653;SDS011;5375;51.250;6.776;2022-12-15T07:34:11;6.13;;;4.47;;
10653;SDS011;5375;51.250;6.776;2022-12-15T07:36:37;6.33;;;4.50;;
10653;SDS011;5375;51.250;6.776;2022-12-15T07:39:03;6.10;;;4.60;;
10653;SDS011;5375;51.250;6.776;2022-12-15T07:41:29;6.07;;;4.23;;
10653;SDS011;5375;51.250;6.776;2022-12-15T07:43:56;5.60;;;4.33;;
10653;SDS011;5375;51.250;6.776;2022-12-15T07:46:22;6.40;;;4.50;;
10653;SDS011;5375;51.250;6.776;2022-12-15T07:48:49;5.37;;;4.63;;
10653;SDS011;5375;51.250;6.776;2022-12-15T07:51:15;6.00;;;4.73;;
10653;SDS011;5375;51.250;6.776;2022-12-15T07:53:43;5.37;;;4.60;;
10653;SDS011;5375;51.250;6.776;2022-12-15T07:56:09;6.27;;;4.60;;
10653;SDS011;5375;51.250;6.776;2022-12-15T07:58:35;6.33;;;4.57;;
10653;SDS011;5375;51.250;6.776;2022-12-15T08:01:02;7.17;;;4.33;;
10653;SDS011;5375;51.250;6.776;2022-12-15T08:03:29;8.73;;;4.83;;
10653;SDS011;5375;51.250;6.776;2022-12-15T08:05:55;6.60;;;4.77;;
10653;SDS011;5375;51.250;6.776;2022-12-15T08:08:21;6.00;;;4.80;;
10653;SDS011;5375;51.250;6.776;2022-12-15T08:10:47;5.47;;;4.47;;
10653;SDS011;5375;51.250;6.776;2022-12-15T08:13:13;5.50;;;4.17;;
10653;SDS011;5375;51.250;6.776;2022-12-15T08:15:41;5.63;;;4.50;;
10653;SDS011;5375;51.250;6.776;2022-12-15T08:18:07;6.03;;;4.63;;
10653;SDS011;5375;51.250;6.776;2022-12-15T08:20:33;7.97;;;4.90;;
10653;SDS011;5375;51.250;6.776;2022-12-15T08:22:59;5.80;;;4.40;;
10653;SDS011;5375;51.250;6.776;2022-12-15T08:25:25;5.90;;;4.47;;
10653;SDS011;5375;51.250;6.776;2022-12-15T08:27:55;7.20;;;4.80;;
10653;SDS011;5375;51.250;6.776;2022-12-15T08:30:22;6.87;;;4.73;;
10653;SDS011;5375;51.250;6.776;2022-12-15T08:32:48;5.50;;;4.73;;
10653;SDS011;5375;51.250;6.776;2022-12-15T08:35:15;6.37;;;5.40;;
10653;SDS011;5375;51.250;6.776;2022-12-15T08:37:41;5.97;;;4.53;;
10653;SDS011;5375;51.250;6.776;2022-12-15T08:40:07;7.37;;;5.07;;
10653;SDS011;5375;51.250;6.776;2022-12-15T08:42:36;7.30;;;5.23;;
10653;SDS011;5375;51.250;6.776;2022-12-15T08:45:03;9.63;;;4.93;;
10653;SDS011;5375;51.250;6.776;2022-12-15T08:47:29;7.07;;;5.80;;
10653;SDS011;5375;51.250;6.776;2022-12-15T08:49:55;8.30;;;5.57;;
10653;SDS011;5375;51.250;6.776;2022-12-15T08:52:21;8.23;;;6.20;;
10653;SDS011;5375;51.250;6.776;2022-12-15T08:54:47;7.70;;;5.77;;
10653;SDS011;5375;51.250;6.776;2022-12-15T08:57:14;9.67;;;5.93;;
10653;SDS011;5375;51.250;6.776;2022-12-15T08:59:40;7.27;;;5.70;;
10653;SDS011;5375;51.250;6.776;2022-12-15T09:02:06;10.00;;;6.27;;
10653;SDS011;5375;51.250;6.776;2022-12-15T09:04:32;7.23;;;6.40;;
10653;SDS011;5375;51.250;6.776;2022-12-15T09:06:58;7.63;;;6.23;;
10653;SDS011;5375;51.250;6.776;2022-12-15T09:09:24;8.10;;;5.87;;
10653;SDS011;5375;51.250;6.776;2022-12-15T09:11:50;9.80;;;6.30;;
10653;SDS011;5375;51.250;6.776;2022-12-15T09:14:16;9.23;;;5.70;;
10653;SDS011;5375;51.250;6.776;2022-12-15T09:16:42;7.60;;;5.97;;
10653;SDS011;5375;51.250;6.776;2022-12-15T09:19:08;8.97;;;6.60;;
10653;SDS011;5375;51.250;6.776;2022-12-15T09:21:34;8.63;;;6.33;;
10653;SDS011;5375;51.250;6.776;2022-12-15T09:24:01;9.50;;;6.30;;
10653;SDS011;5375;51.250;6.776;2022-12-15T09:26:28;8.53;;;7.00;;
10653;SDS011;5375;51.250;6.776;2022-12-15T09:28:54;8.83;;;6.60;;
10653;SDS011;5375;51.250;6.776;2022-12-15T09:31:21;9.57;;;6.57;;
10653;SDS011;5375;51.250;6.776;2022-12-15T09:33:48;11.23;;;7.03;;
10653;SDS011;5375;51.250;6.776;2022-12-15T09:36:15;8.87;;;6.40;;
10653;SDS011;5375;51.250;6.776;2022-12-15T09:38:41;10.57;;;6.87;;
10653;SDS011;5375;51.250;6.776;2022-12-15T09:48:50;10.33;;;6.70;;
10653;SDS011;5375;51.250;6.776;2022-12-15T09:51:28;8.77;;;6.10;;
10653;SDS011;5375;51.250;6.776;2022-12-15T09:53:54;8.60;;;6.20;;
10653;SDS011;5375;51.250;6.776;2022-12-15T09:56:22;7.83;;;6.23;;
10653;SDS011;5375;51.250;6.776;2022-12-15T10:01:37;7.93;;;5.60;;
10653;SDS011;5375;51.250;6.776;2022-12-15T10:04:19;7.37;;;6.27;;
10653;SDS011;5375;51.250;6.776;2022-12-15T10:06:49;9.37;;;6.60;;
10653;SDS011;5375;51.250;6.776;2022-12-15T10:09:17;9.87;;;7.03;;
10653;SDS011;5375;51.250;6.776;2022-12-15T10:14:40;9.23;;;6.50;;
10653;SDS011;5375;51.250;6.776;2022-12-15T10:19:58;11.60;;;6.80;;
10653;SDS011;5375;51.250;6.776;2022-12-15T10:22:31;10.53;;;7.17;;
10653;SDS011;5375;51.250;6.776;2022-12-15T10:24:58;12.80;;;6.77;;
10653;SDS011;5375;51.250;6.776;2022-12-15T10:27:50;11.63;;;6.87;;
10653;SDS011;5375;51.250;6.776;2022-12-15T10:30:17;11.33;;;6.80;;
10653;SDS011;5375;51.250;6.776;2022-12-15T10:35:32;9.47;;;6.87;;
10653;SDS011;5375;51.250;6.776;2022-12-15T10:38:05;11.00;;;6.87;;
10653;SDS011;5375;51.250;6.776;2022-12-15T10:43:12;8.73;;;6.57;;
10653;SDS011;5375;51.250;6.776;2022-12-15T10:45:39;12.03;;;7.47;;
10653;SDS011;5375;51.250;6.776;2022-12-15T10:48:08;13.93;;;7.07;;
10653;SDS011;5375;51.250;6.776;2022-12-15T10:50:42;11.17;;;6.90;;
10653;SDS011;5375;51.250;6.776;2022-12-15T10:53:08;16.40;;;7.67;;
10653;SDS011;5375;51.250;6.776;2022-12-15T10:56:00;14.77;;;7.67;;
10653;SDS011;5375;51.250;6.776;2022-12-15T10:58:26;15.97;;;7.77;;
10653;SDS011;5375;51.250;6.776;2022-12-15T11:01:03;15.10;;;8.00;;
10653;SDS011;5375;51.250;6.776;2022-12-15T11:03:32;15.40;;;8.03;;
10653;SDS011;5375;51.250;6.776;2022-12-15T11:06:00;16.53;;;8.33;;
10653;SDS011;5375;51.250;6.776;2022-12-15T11:08:26;21.27;;;8.67;;
10653;SDS011;5375;51.250;6.776;2022-12-15T11:10:54;18.53;;;9.17;;
10653;SDS011;5375;51.250;6.776;2022-12-15T11:13:40;14.47;;;8.47;;
10653;SDS011;5375;51.250;6.776;2022-12-15T11:16:13;21.47;;;8.87;;
10653;SDS011;5375;51.250;6.776;2022-12-15T11:18:48;15.70;;;8.80;;
10653;SDS011;5375;51.250;6.776;2022-12-15T11:23:54;19.43;;;9.13;;
10653;SDS011;5375;51.250;6.776;2022-12-15T11:28:53;21.50;;;9.27;;
10653;SDS011;5375;51.250;6.776;2022-12-15T11:31:34;16.70;;;9.00;;
10653;SDS011;5375;51.250;6.776;2022-12-15T11:34:02;18.17;;;8.97;;
10653;SDS011;5375;51.250;6.776;2022-12-15T11:38:58;12.43;;;8.00;;
10653;SDS011;5375;51.250;6.776;2022-12-15T11:46:49;15.50;;;8.00;;
10653;SDS011;5375;51.250;6.776;2022-12-15T11:54:52;16.03;;;7.57;;
10653;SDS011;5375;51.250;6.776;2022-12-15T12:00:04;16.87;;;7.67;;
10653;SDS011;5375;51.250;6.776;2022-12-15T12:12:41;13.97;;;7.97;;
10653;SDS011;5375;51.250;6.776;2022-12-15T12:17:41;12.37;;;7.90;;
10653;SDS011;5375;51.250;6.776;2022-12-15T12:20:12;13.43;;;8.20;;
10653;SDS011;5375;51.250;6.776;2022-12-15T12:22:39;11.57;;;7.67;;
10653;SDS011;5375;51.250;6.776;2022-12-15T12:25:11;13.63;;;8.13;;
10653;SDS011;5375;51.250;6.776;2022-12-15T12:27:41;13.60;;;8.37;;
10653;SDS011;5375;51.250;6.776;2022-12-15T12:30:14;11.97;;;8.17;;
10653;SDS011;5375;51.250;6.776;2022-12-15T12:32:57;14.47;;;7.77;;
10653;SDS011;5375;51.250;6.776;2022-12-15T12:35:26;11.07;;;7.70;;
10653;SDS011;5375;51.250;6.776;2022-12-15T12:37:58;12.40;;;8.20;;
10653;SDS011;5375;51.250;6.776;2022-12-15T12:43:00;14.67;;;8.67;;
10653;SDS011;5375;51.250;6.776;2022-12-15T12:45:39;12.17;;;7.60;;
10653;SDS011;5375;51.250;6.776;2022-12-15T12:48:08;12.63;;;7.77;;
10653;SDS011;5375;51.250;6.776;2022-12-15T12:50:37;12.80;;;8.13;;
10653;SDS011;5375;51.250;6.776;2022-12-15T12:53:03;13.90;;;7.90;;
10653;SDS011;5375;51.250;6.776;2022-12-15T12:55:39;13.47;;;7.53;;
10653;SDS011;5375;51.250;6.776;2022-12-15T13:03:38;12.07;;;7.60;;
10653;SDS011;5375;51.250;6.776;2022-12-15T13:08:52;9.77;;;7.60;;
10653;SDS011;5375;51.250;6.776;2022-12-15T13:17:09;9.70;;;7.40;;
10653;SDS011;5375;51.250;6.776;2022-12-15T13:22:29;11.17;;;6.97;;
10653;SDS011;5375;51.250;6.776;2022-12-15T13:24:56;11.97;;;7.43;;
10653;SDS011;5375;51.250;6.776;2022-12-15T13:27:22;9.47;;;7.53;;
10653;SDS011;5375;51.250;6.776;2022-12-15T13:29:53;10.47;;;7.17;;
10653;SDS011;5375;51.250;6.776;2022-12-15T13:32:27;11.30;;;6.90;;
10653;SDS011;5375;51.250;6.776;2022-12-15T13:34:53;9.47;;;7.13;;
10653;SDS011;5375;51.250;6.776;2022-12-15T13:42:56;11.83;;;7.10;;
10653;SDS011;5375;51.250;6.776;2022-12-15T13:45:33;9.97;;;7.10;;
10653;SDS011;5375;51.250;6.776;2022-12-15T13:48:05;9.93;;;7.10;;
10653;SDS011;5375;51.250;6.776;2022-12-15T13:50:39;9.13;;;6.80;;
10653;SDS011;5375;51.250;6.776;2022-12-15T13:53:05;10.20;;;7.23;;
10653;SDS011;5375;51.250;6.776;2022-12-15T13:55:36;10.47;;;7.00;;
10653;SDS011;5375;51.250;6.776;2022-12-15T13:58:04;9.07;;;6.30;;
10653;SDS011;5375;51.250;6.776;2022-12-15T14:00:31;10.10;;;7.20;;
10653;SDS011;5375;51.250;6.776;2022-12-15T14:03:03;8.70;;;7.00;;
10653;SDS011;5375;51.250;6.776;2022-12-15T14:05:30;9.13;;;7.00;;
10653;SDS011;5375;51.250;6.776;2022-12-15T14:07:57;8.10;;;6.70;;
10653;SDS011;5375;51.250;6.776;2022-12-15T14:10:26;10.07;;;6.93;;
10653;SDS011;5375;51.250;6.776;2022-12-15T14:12:55;9.60;;;6.70;;
10653;SDS011;5375;51.250;6.776;2022-12-15T14:15:41;8.73;;;6.70;;
10653;SDS011;5375;51.250;6.776;2022-12-15T14:18:22;9.73;;;6.57;;
10653;SDS011;5375;51.250;6.776;2022-12-15T14:20:49;8.80;;;6.67;;
10653;SDS011;5375;51.250;6.776;2022-12-15T14:23:18;9.97;;;6.33;;
10653;SDS011;5375;51.250;6.776;2022-12-15T14:25:55;9.33;;;7.37;;
10653;SDS011;5375;51.250;6.776;2022-12-15T14:28:26;9.70;;;7.03;;
10653;SDS011;5375;51.250;6.776;2022-12-15T14:30:54;8.47;;;6.37;;
10653;SDS011;5375;51.250;6.776;2022-12-15T14:33:21;9.90;;;6.73;;
10653;SDS011;5375;51.250;6.776;2022-12-15T14:35:51;8.73;;;6.53;;
10653;SDS011;5375;51.250;6.776;2022-12-15T14:38:20;9.47;;;6.90;;
10653;SDS011;5375;51.250;6.776;2022-12-15T14:40:47;10.73;;;6.60;;
10653;SDS011;5375;51.250;6.776;2022-12-15T14:43:17;9.37;;;6.63;;
10653;SDS011;5375;51.250;6.776;2022-12-15T14:45:44;8.37;;;6.60;;
10653;SDS011;5375;51.250;6.776;2022-12-15T14:48:13;7.60;;;6.20;;
10653;SDS011;5375;51.250;6.776;2022-12-15T14:50:46;13.93;;;6.53;;
10653;SDS011;5375;51.250;6.776;2022-12-15T14:53:13;8.90;;;6.43;;
10653;SDS011;5375;51.250;6.776;2022-12-15T14:55:40;8.10;;;6.70;;
10653;SDS011;5375;51.250;6.776;2022-12-15T15:00:49;14.90;;;6.20;;
10653;SDS011;5375;51.250;6.776;2022-12-15T15:05:52;8.77;;;6.67;;
10653;SDS011;5375;51.250;6.776;2022-12-15T15:08:27;10.73;;;6.83;;
10653;SDS011;5375;51.250;6.776;2022-12-15T15:10:54;7.43;;;5.83;;
10653;SDS011;5375;51.250;6.776;2022-12-15T15:13:26;8.57;;;6.33;;
10653;SDS011;5375;51.250;6.776;2022-12-15T15:15:59;8.57;;;6.70;;
10653;SDS011;5375;51.250;6.776;2022-12-15T15:18:27;11.10;;;6.90;;
10653;SDS011;5375;51.250;6.776;2022-12-15T15:21:13;9.37;;;6.90;;
10653;SDS011;5375;51.250;6.776;2022-12-15T15:23:40;8.40;;;6.70;;
10653;SDS011;5375;51.250;6.776;2022-12-15T15:28:42;8.30;;;6.50;;
10653;SDS011;5375;51.250;6.776;2022-12-15T15:33:50;9.23;;;6.57;;
